Flight Track Log - Related Links

Times and Time Zones

All times are in EDT time to prevent confusion due to time zone crossing. See the KAP46 flight status page for this flight to view local times or setup timezone preferences in your user account.

Time Position Orientation Groundspeed Altitude Reporting Facility
EDT Latitude Longitude Course Direction KTS MPH feet Rate Location/Type
Sun 10:29:03 AM 42.7508 -73.7831 69° East 112 129 900  Level Boston Center
Sun 10:29:58 AM 42.7619 -73.7439 69° East 128 147 1,700 879 Climbing Boston Center
Sun 10:30:59 AM 42.7953 -73.7361 10° North 122 140 2,600 797 Climbing Boston Center
Sun 10:32:06 AM 42.8328 -73.7339 North 120 138 3,400 803 Climbing Boston Center
Sun 10:33:06 AM 42.8661 -73.7431 349° North 124 143 4,300 871 Climbing Boston Center
Sun 10:34:10 AM 42.8972 -73.7581 341° North 123 142 5,200 857 Climbing Boston Center
Sun 10:34:58 AM 42.9242 -73.7614 355° North 128 147 5,900 778 Climbing Boston Center
Sun 10:35:58 AM 42.9594 -73.7792 340° North 125 144 6,600 645 Climbing Boston Center
Sun 10:36:59 AM 42.9967 -73.8000 338° Northwest 149 171 7,200 645 Climbing Boston Center
Sun 10:37:59 AM 43.0319 -73.8147 343° North 133 153 7,900 694 Climbing Boston Center
Sun 10:39:00 AM 43.0672 -73.8356 337° Northwest 131 151 8,600 365 Climbing Boston Center
Sun 10:39:54 AM 43.1022 -73.8506 343° North 153 176 8,600  Level Boston Center
Sun 10:40:55 AM 43.1397 -73.8683 341° North 172 198 8,600  Level Boston Center
Sun 10:41:53 AM 43.1853 -73.8867 344° North 159 183 8,600  Level Boston Center
Sun 10:42:53 AM 43.2203 -73.9103 334° Northwest 153 176 8,600  Level Boston Center
Sun 10:43:54 AM 43.2617 -73.9342 337° Northwest 153 176 8,600  Level Boston Center
Sun 10:44:54 AM 43.2989 -73.9550 338° Northwest 153 176 8,600  Level Boston Center
Sun 10:45:54 AM 43.3447 -73.9731 344° North 153 176 8,600  Level Boston Center
Sun 10:46:52 AM 43.3797 -73.9911 339° North 153 176 8,600  Level Boston Center
Sun 10:47:52 AM 43.4233 -74.0181 336° Northwest 158 182 8,600  Level Boston Center
Sun 10:48:53 AM 43.4647 -74.0364 342° North 158 182 8,600  Level Boston Center
Sun 10:49:53 AM 43.5019 -74.0544 341° North 152 175 8,600  Level Boston Center
Sun 10:50:54 AM 43.5433 -74.0786 337° Northwest 152 175 8,600  Level Boston Center
Sun 10:51:54 AM 43.5825 -74.1025 336° Northwest 152 175 8,600  Level Boston Center
Sun 10:52:53 AM 43.6239 -74.1208 342° North 147 169 8,600  Level Boston Center
Sun 10:53:53 AM 43.6631 -74.1450 336° Northwest 147 169 8,600  Level Boston Center
Sun 10:54:54 AM 43.7025 -74.1661 339° North 147 169 8,600  Level Boston Center
Sun 10:55:54 AM 43.7436 -74.1903 337° Northwest 152 175 8,600  Level Boston Center
Sun 10:56:52 AM 43.7808 -74.2114 338° Northwest 152 175 8,600  Level Boston Center
Sun 10:57:52 AM 43.8222 -74.2356 337° Northwest 152 175 8,600  Level Boston Center
Sun 10:58:54 AM 43.8614 -74.2569 339° North 152 175 8,600  Level Boston Center
Sun 10:59:54 AM 43.9008 -74.2783 339° North 152 175 8,600 -50 Level Boston Center
Sun 11:00:55 AM 43.9419 -74.3028 337° Northwest 157 181 8,500 -50 Descending Boston Center
Sun 11:01:53 AM 43.9833 -74.3272 337° Northwest 157 181 8,500  Level Boston Center
Sun 11:02:53 AM 44.0225 -74.3456 341° North 157 181 8,500  Level Boston Center
Sun 11:03:54 AM 44.0639 -74.3700 337° Northwest 157 181 8,500  Level Boston Center
Sun 11:04:54 AM 44.1011 -74.3914 338° Northwest 157 181 8,500  Level Boston Center
Sun 11:05:54 AM 44.1444 -74.4133 340° North 157 181 8,500  Level Boston Center
Sun 11:06:52 AM 44.1775 -74.4317 338° Northwest 157 181 8,500  Level Boston Center
Sun 11:07:52 AM 44.2269 -74.4594 338° Northwest 157 181 8,500  Level Boston Center
Sun 11:08:52 AM 44.2681 -74.4842 337° Northwest 157 181 8,500 50 Level Boston Center
Sun 11:09:53 AM 44.3072 -74.5086 336° Northwest 157 181 8,600 49 Climbing Boston Center
Sun 11:10:54 AM 44.3467 -74.5275 341° North 157 181 8,600  Level Boston Center
Sun 11:11:52 AM 44.3897 -74.5550 335° Northwest 157 181 8,600  Level Boston Center
Sun 11:12:53 AM 44.4331 -74.5769 340° North 157 181 8,600  Level Boston Center
Sun 11:13:54 AM 44.4744 -74.5989 339° North 157 181 8,600 -101 Level Boston Center
Sun 11:14:52 AM 44.5117 -74.6117 346° North 157 181 8,400 -252 Descending Boston Center
Sun 11:15:53 AM 44.5592 -74.6339 342° North 157 181 8,100 -347 Descending Boston Center
Sun 11:16:53 AM 44.6067 -74.6533 344° North 167 192 7,700 -446 Descending Boston Center
Sun 11:17:54 AM 44.6522 -74.6725 343° North 172 198 7,200 -694 Descending Boston Center
Sun 11:18:54 AM 44.7042 -74.6861 349° North 172 198 6,300 -942 Descending Boston Center
Sun 11:19:55 AM 44.7583 -74.6881 359° North 182 209 5,300 -984 Descending Boston Center

Login

Don't have an account? Register now (free) for customized features, flight alerts, and more!